In Rescue
 
Open Full Screen Window  High Contrast Mode
Wind Gusting 00 knots
09
March 01, 2024 5:16 PM EST
Weather Information
Wind Direction
  200 °
Wind Speed
  09 kt (10 mph)
Wind Gust
  00 kt (0 mph)
Altimeter
30.13 in
Visibility
10 SM
Temperature
08° C
46° F
Dewpoint
-08° C
18° F
Humidity
31%
Sky Condition
Clear
VFR

METAR KOSC 012216Z AUTO 20009KT 10SM CLR 08/M08 A3013 RMK AO2 T00801077

FAA Disclaimer: The data displayed is for advisory purposes only and is not to be used for flight planning or operations.